Time;durP1;ratioP1;P1;durP2;ratioP2;P2;SDS_P1;SDS_P2;PMS_P1;PMS_P2;Temp;Humidity;BMP_temperature;BMP_pressure;BME280_temperature;BME280_humidity;BME280_pressure;Samples;Min_cycle;Max_cycle;Signal;HPM_P1;HPM_P2
2023/04/22 00:01:16;;;;;;;17.00;9.18;;;13.50;72.30;;;;;;7383668;19;20011;-73
2023/04/22 00:03:44;;;;;;;20.92;9.23;;;13.50;72.50;;;;;;7383459;19;20399;-73
2023/04/22 00:06:13;;;;;;;14.73;9.25;;;13.50;72.70;;;;;;7384345;19;20075;-73
2023/04/22 00:08:42;;;;;;;24.88;10.73;;;13.40;72.70;;;;;;7388677;19;20070;-74
2023/04/22 00:11:13;;;;;;;18.48;9.50;;;13.40;73.20;;;;;;7403370;19;20275;-73
2023/04/22 00:13:42;;;;;;;21.48;10.05;;;13.40;73.00;;;;;;7387517;19;20239;-72
2023/04/22 00:16:11;;;;;;;17.52;10.25;;;13.30;73.10;;;;;;7383719;19;20021;-73
2023/04/22 00:18:40;;;;;;;21.25;9.68;;;13.40;73.00;;;;;;7382432;19;20020;-73
2023/04/22 00:21:09;;;;;;;15.77;9.18;;;13.40;73.00;;;;;;7382468;19;20019;-73
2023/04/22 00:23:37;;;;;;;20.15;10.00;;;13.40;72.80;;;;;;7405038;19;20010;-73
2023/04/22 00:26:06;;;;;;;21.42;10.63;;;13.40;72.90;;;;;;7382866;19;20006;-73
2023/04/22 00:28:37;;;;;;;17.50;9.73;;;13.40;73.00;;;;;;7381819;19;20007;-73
2023/04/22 00:31:06;;;;;;;15.07;9.52;;;13.40;73.10;;;;;;7383041;19;20007;-72
2023/04/22 00:33:35;;;;;;;15.75;9.20;;;13.30;73.20;;;;;;7382717;19;20020;-72
2023/04/22 00:36:04;;;;;;;18.67;9.77;;;13.30;73.00;;;;;;7382532;19;20401;-72
2023/04/22 00:38:32;;;;;;;20.90;10.13;;;13.30;73.00;;;;;;7403271;19;20343;-72
2023/04/22 00:41:01;;;;;;;16.60;9.27;;;13.30;73.10;;;;;;7382240;19;20059;-72
2023/04/22 00:43:30;;;;;;;16.27;10.40;;;13.20;73.30;;;;;;7381376;19;20299;-72
2023/04/22 00:46:02;;;;;;;17.23;10.70;;;13.20;73.50;;;;;;7381429;19;20024;-72
2023/04/22 00:48:31;;;;;;;18.65;10.65;;;13.10;74.10;;;;;;7380943;19;20006;-72
2023/04/22 00:51:00;;;;;;;21.17;10.75;;;13.10;74.30;;;;;;7382484;19;20000;-72
2023/04/22 00:53:29;;;;;;;22.35;11.10;;;13.10;74.50;;;;;;7403297;19;20062;-73
2023/04/22 00:55:58;;;;;;;20.42;11.45;;;13.00;75.00;;;;;;7381099;19;20270;-74
2023/04/22 00:58:29;;;;;;;22.75;11.30;;;13.00;75.30;;;;;;7380306;19;20485;-72
2023/04/22 01:01:00;;;;;;;;;;;13.00;75.30;;;;;;7382358;19;20005;-72
2023/04/22 01:03:31;;;;;;;24.08;11.02;;;13.00;75.00;;;;;;7380197;19;19907;-72
2023/04/22 01:06:00;;;;;;;19.60;11.25;;;12.90;75.10;;;;;;7380139;19;20020;-73
2023/04/22 01:08:31;;;;;;;20.10;10.65;;;12.90;75.20;;;;;;7403837;19;20260;-73
2023/04/22 01:11:00;;;;;;;18.08;11.25;;;12.90;75.20;;;;;;7381081;19;20010;-72
2023/04/22 01:13:29;;;;;;;21.40;11.18;;;12.80;75.30;;;;;;7380416;19;20346;-73
2023/04/22 01:16:01;;;;;;;18.70;10.45;;;12.80;75.40;;;;;;7380740;19;20030;-73
2023/04/22 01:18:31;;;;;;;19.27;10.82;;;12.80;75.60;;;;;;7380812;19;20010;-73
2023/04/22 01:21:01;;;;;;;18.33;11.20;;;12.90;75.60;;;;;;7380363;19;20023;-73
2023/04/22 01:23:32;;;;;;;21.35;11.70;;;12.90;75.80;;;;;;7400262;19;20070;-73
2023/04/22 01:26:01;;;;;;;;;;;12.90;75.90;;;;;;7380779;19;20059;-73
2023/04/22 01:28:31;;;;;;;20.65;11.35;;;12.90;75.80;;;;;;7380211;19;19919;-72
2023/04/22 01:30:59;;;;;;;20.05;11.00;;;12.90;75.70;;;;;;7379825;19;20109;-73
2023/04/22 01:33:28;;;;;;;20.85;10.35;;;13.00;75.80;;;;;;7380394;19;20071;-72
2023/04/22 01:35:57;;;;;;;18.77;10.60;;;13.00;75.80;;;;;;7380813;19;20062;-72
2023/04/22 01:38:26;;;;;;;19.73;11.18;;;13.00;75.60;;;;;;7402111;19;20011;-73
2023/04/22 01:40:57;;;;;;;21.60;11.80;;;13.10;75.80;;;;;;7380223;19;20048;-73
2023/04/22 01:43:26;;;;;;;;;;;13.10;75.60;;;;;;7380941;19;20019;-72
2023/04/22 01:45:55;;;;;;;20.15;11.00;;;13.10;76.60;;;;;;7380347;19;19928;-72
2023/04/22 01:48:24;;;;;;;21.38;12.43;;;13.10;75.80;;;;;;7380093;19;20062;-73
2023/04/22 01:50:52;;;;;;;18.88;11.05;;;13.10;75.90;;;;;;7379977;19;20361;-73
2023/04/22 01:53:21;;;;;;;20.27;11.27;;;13.10;76.10;;;;;;7400998;19;20233;-72
2023/04/22 01:55:50;;;;;;;21.33;11.15;;;13.20;76.10;;;;;;7376969;19;20267;-72
2023/04/22 01:58:21;;;;;;;21.67;10.75;;;13.20;75.90;;;;;;7379201;19;20010;-72
2023/04/22 02:00:50;;;;;;;23.20;11.43;;;13.20;75.80;;;;;;7378394;19;20032;-72
2023/04/22 02:03:18;;;;;;;20.75;11.27;;;13.20;75.60;;;;;;7380292;19;20122;-73
2023/04/22 02:05:47;;;;;;;20.27;11.25;;;13.20;75.90;;;;;;7382544;19;20027;-73
2023/04/22 02:08:16;;;;;;;16.92;10.98;;;13.20;75.80;;;;;;7400593;19;20011;-72
2023/04/22 02:10:45;;;;;;;14.82;9.57;;;13.20;75.80;;;;;;7378565;19;20319;-72
2023/04/22 02:13:13;;;;;;;21.15;10.60;;;13.20;75.90;;;;;;7378708;19;20003;-72
2023/04/22 02:15:44;;;;;;;17.13;10.05;;;13.20;76.00;;;;;;7378987;19;20052;-72
2023/04/22 02:18:13;;;;;;;21.33;11.75;;;13.20;76.10;;;;;;7377979;19;20003;-73
2023/04/22 02:20:42;;;;;;;23.83;11.50;;;13.10;76.30;;;;;;7377403;19;20107;-73
2023/04/22 02:23:11;;;;;;;19.70;10.95;;;13.10;76.40;;;;;;7400542;19;20236;-73
2023/04/22 02:25:40;;;;;;;19.17;11.15;;;13.10;76.30;;;;;;7378013;19;20010;-72
2023/04/22 02:28:08;;;;;;;21.35;11.23;;;13.20;76.20;;;;;;7377900;19;20067;-73
2023/04/22 02:30:37;;;;;;;25.80;11.32;;;13.20;76.30;;;;;;7378755;19;20234;-72
2023/04/22 02:33:08;;;;;;;22.38;11.05;;;13.20;77.10;;;;;;7378838;19;20011;-73
2023/04/22 02:35:37;;;;;;;19.02;11.65;;;13.10;76.50;;;;;;7400476;19;20007;-73
2023/04/22 02:38:06;;;;;;;22.10;11.98;;;13.10;76.50;;;;;;7378133;19;20267;-73
2023/04/22 02:40:34;;;;;;;21.23;11.95;;;13.10;76.50;;;;;;7376174;19;20006;-73
2023/04/22 02:43:03;;;;;;;20.85;10.52;;;13.10;76.40;;;;;;7378317;19;20059;-73
2023/04/22 02:45:32;;;;;;;19.90;11.10;;;13.10;76.60;;;;;;7377071;19;20076;-73
2023/04/22 02:48:01;;;;;;;18.00;11.52;;;13.10;76.70;;;;;;7377324;19;20269;-73
2023/04/22 02:50:32;;;;;;;21.33;12.05;;;13.10;76.60;;;;;;7399397;19;20109;-73
2023/04/22 02:53:01;;;;;;;21.92;12.45;;;13.00;76.80;;;;;;7377581;19;20077;-72
2023/04/22 02:55:29;;;;;;;17.45;11.15;;;13.00;76.90;;;;;;7377580;19;20095;-73
2023/04/22 02:57:58;;;;;;;21.70;11.75;;;13.00;77.00;;;;;;7377766;19;20002;-73
2023/04/22 03:00:27;;;;;;;21.92;11.48;;;13.10;77.10;;;;;;7377215;19;20690;-73
2023/04/22 03:02:55;;;;;;;19.17;11.23;;;13.10;76.80;;;;;;7377636;19;20024;-73
2023/04/22 03:05:24;;;;;;;21.63;12.30;;;13.10;76.70;;;;;;7397042;19;20063;-73
2023/04/22 03:07:56;;;;;;;19.33;11.07;;;13.10;76.90;;;;;;7382240;19;20019;-73
2023/04/22 03:10:24;;;;;;;;;;;13.10;76.90;;;;;;7386354;19;20354;-73
2023/04/22 03:12:53;;;;;;;21.45;11.80;;;13.20;77.10;;;;;;7386488;19;19990;-72
2023/04/22 03:15:21;;;;;;;23.88;12.10;;;13.20;76.90;;;;;;7386237;19;20002;-72
2023/04/22 03:17:50;;;;;;;17.23;11.07;;;13.20;77.80;;;;;;7383683;19;20062;-72
2023/04/22 03:20:19;;;;;;;21.25;10.93;;;13.10;77.00;;;;;;7407486;19;20023;-72
2023/04/22 03:22:48;;;;;;;18.50;9.88;;;13.10;77.20;;;;;;7387623;19;20010;-72
2023/04/22 03:25:20;;;;;;;16.20;9.10;;;13.20;77.50;;;;;;7388024;19;20039;-72
2023/04/22 03:27:49;;;;;;;16.67;10.00;;;13.20;77.40;;;;;;7385408;19;20003;-72
2023/04/22 03:30:18;;;;;;;23.50;11.30;;;13.30;77.70;;;;;;7387566;19;20014;-72
2023/04/22 03:32:46;;;;;;;26.00;11.30;;;13.20;77.80;;;;;;7408412;19;20027;-72
2023/04/22 03:35:15;;;;;;;22.23;11.60;;;13.30;77.90;;;;;;7386113;19;20011;-72
2023/04/22 03:37:44;;;;;;;18.60;11.52;;;13.30;78.00;;;;;;7386148;19;20020;-72
2023/04/22 03:40:13;;;;;;;22.02;12.15;;;13.30;78.80;;;;;;7385846;19;20003;-73
2023/04/22 03:42:45;;;;;;;24.00;11.32;;;13.30;78.30;;;;;;7386725;19;20014;-73
2023/04/22 03:45:13;;;;;;;20.30;11.07;;;13.30;78.30;;;;;;7383422;19;20010;-73
2023/04/22 03:47:42;;;;;;;18.48;11.05;;;13.30;78.40;;;;;;7407737;19;20015;-73
2023/04/22 03:50:12;;;;;;;19.35;11.52;;;13.30;78.40;;;;;;7385731;19;20062;-73
2023/04/22 03:52:41;;;;;;;21.45;11.65;;;13.30;78.50;;;;;;7384819;19;20023;-72
2023/04/22 03:55:10;;;;;;;19.00;11.35;;;13.30;78.50;;;;;;7383948;19;20003;-72
2023/04/22 03:57:39;;;;;;;23.35;12.38;;;13.10;79.00;;;;;;7386259;19;20027;-72
2023/04/22 04:00:12;;;;;;;23.70;13.00;;;13.10;79.60;;;;;;7384258;19;20362;-73
2023/04/22 04:02:40;;;;;;;21.52;13.10;;;13.20;80.00;;;;;;7411304;19;20006;-72
2023/04/22 04:05:10;;;;;;;19.92;12.05;;;13.30;80.60;;;;;;7384677;19;20066;-73
2023/04/22 04:07:39;;;;;;;20.08;13.25;;;13.30;81.60;;;;;;7383553;19;20013;-72
2023/04/22 04:10:09;;;;;;;22.10;12.10;;;13.40;82.50;;;;;;7384046;19;20006;-72
2023/04/22 04:12:38;;;;;;;20.15;11.85;;;13.40;83.30;;;;;;7386012;19;20016;-73
2023/04/22 04:15:08;;;;;;;24.15;14.13;;;13.40;83.30;;;;;;7390666;19;20020;-73
2023/04/22 04:17:39;;;;;;;25.65;14.43;;;13.30;82.80;;;;;;7404144;19;20017;-73
2023/04/22 04:20:09;;;;;;;26.75;14.13;;;13.20;83.20;;;;;;7382056;19;20415;-72
2023/04/22 04:22:38;;;;;;;25.63;14.88;;;13.00;83.60;;;;;;7384789;19;20066;-72
2023/04/22 04:25:08;;;;;;;27.63;15.02;;;12.80;84.70;;;;;;7385297;19;20003;-72
2023/04/22 04:27:38;;;;;;;26.67;15.07;;;12.80;85.80;;;;;;7385280;19;20003;-72
2023/04/22 04:30:08;;;;;;;33.85;16.98;;;12.90;86.40;;;;;;7391871;19;20007;-72
2023/04/22 04:32:39;;;;;;;34.10;17.17;;;13.00;87.40;;;;;;7405708;19;20354;-73
2023/04/22 04:35:11;;;;;;;29.98;16.15;;;13.10;88.00;;;;;;7384531;19;20232;-73
2023/04/22 04:37:40;;;;;;;27.05;15.70;;;13.20;88.40;;;;;;7384278;19;20413;-73
2023/04/22 04:40:12;;;;;;;32.17;15.85;;;13.20;88.40;;;;;;7382500;19;20028;-73
2023/04/22 04:42:41;;;;;;;32.97;16.88;;;13.30;88.70;;;;;;7385031;19;20328;-73
2023/04/22 04:45:10;;;;;;;28.02;16.92;;;13.30;89.10;;;;;;7384270;19;20007;-73
2023/04/22 04:47:41;;;;;;;31.13;17.08;;;13.30;89.70;;;;;;7405247;19;20013;-73
2023/04/22 04:50:11;;;;;;;28.85;17.42;;;13.30;89.90;;;;;;7384033;19;20377;-73
2023/04/22 04:52:39;;;;;;;38.85;20.38;;;13.30;90.10;;;;;;7383292;19;20267;-72
2023/04/22 04:55:09;;;;;;;41.72;22.98;;;13.10;90.30;;;;;;7382341;19;20002;-72
2023/04/22 04:57:37;;;;;;;49.17;27.30;;;13.10;91.00;;;;;;7384149;19;20296;-73
2023/04/22 05:00:09;;;;;;;41.10;25.30;;;13.10;91.50;;;;;;7392905;19;20358;-73
2023/04/22 05:02:40;;;;;;;43.70;22.90;;;13.20;91.60;;;;;;7409159;19;20393;-72
2023/04/22 05:05:09;;;;;;;;;;;13.30;91.70;;;;;;7383774;19;19999;-73
2023/04/22 05:07:38;;;;;;;43.17;23.98;;;13.40;91.90;;;;;;7383454;19;20161;-72
2023/04/22 05:10:08;;;;;;;49.35;25.95;;;13.40;91.80;;;;;;7383844;19;20005;-73
2023/04/22 05:12:36;;;;;;;49.45;25.02;;;13.50;91.90;;;;;;7382232;19;20011;-72
2023/04/22 05:15:06;;;;;;;42.40;25.08;;;13.50;92.00;;;;;;7405047;19;20027;-74
2023/04/22 05:17:34;;;;;;;47.63;26.77;;;13.50;92.10;;;;;;7382858;19;20089;-72
2023/04/22 05:20:06;;;;;;;50.33;27.20;;;13.50;92.10;;;;;;7382030;19;20406;-72
2023/04/22 05:22:36;;;;;;;47.55;28.13;;;13.60;92.10;;;;;;7382935;19;20366;-72
2023/04/22 05:25:06;;;;;;;47.53;27.55;;;13.60;92.30;;;;;;7382990;19;20022;-73
2023/04/22 05:27:34;;;;;;;53.20;28.10;;;13.70;92.40;;;;;;7383158;19;20013;-72
2023/04/22 05:30:03;;;;;;;50.65;28.35;;;13.70;92.50;;;;;;7404544;19;20054;-73
2023/04/22 05:32:32;;;;;;;51.15;28.90;;;13.70;92.50;;;;;;7382238;19;20066;-72
2023/04/22 05:35:00;;;;;;;59.80;30.33;;;13.60;92.50;;;;;;7382423;19;20006;-72
2023/04/22 05:37:32;;;;;;;52.50;30.42;;;13.60;92.70;;;;;;7381858;19;20066;-72
2023/04/22 05:40:00;;;;;;;52.60;30.48;;;13.60;93.00;;;;;;7381028;19;20006;-72
2023/04/22 05:42:29;;;;;;;64.88;33.97;;;13.60;93.10;;;;;;7382317;19;20424;-73
2023/04/22 05:44:57;;;;;;;56.70;31.38;;;13.60;93.20;;;;;;7402949;19;20031;-72
2023/04/22 05:47:26;;;;;;;59.83;31.25;;;13.60;93.50;;;;;;7381453;19;20010;-72
2023/04/22 05:49:55;;;;;;;58.97;29.95;;;13.60;93.60;;;;;;7381852;19;20377;-73
2023/04/22 05:52:24;;;;;;;60.00;30.83;;;13.60;93.70;;;;;;7382370;19;20023;-73
2023/04/22 05:54:55;;;;;;;60.72;32.05;;;13.60;93.70;;;;;;7381910;19;20040;-74
2023/04/22 05:57:24;;;;;;;62.20;32.13;;;13.60;93.90;;;;;;7383444;19;20018;-73
2023/04/22 05:59:52;;;;;;;60.10;33.40;;;13.60;94.00;;;;;;7401517;19;20010;-73
2023/04/22 06:02:21;;;;;;;58.92;31.70;;;13.60;93.90;;;;;;7380967;19;20015;-73
2023/04/22 06:04:50;;;;;;;60.35;32.50;;;13.60;94.10;;;;;;7380925;19;20023;-73
2023/04/22 06:07:18;;;;;;;64.57;33.88;;;13.60;94.30;;;;;;7381195;19;19998;-73
2023/04/22 06:09:47;;;;;;;58.97;32.03;;;13.70;94.50;;;;;;7380652;19;20051;-72
2023/04/22 06:12:18;;;;;;;56.95;30.80;;;13.70;94.40;;;;;;7382390;19;20066;-73
2023/04/22 06:14:47;;;;;;;59.90;31.15;;;13.70;94.30;;;;;;7401951;19;20059;-72
2023/04/22 06:17:15;;;;;;;62.10;33.50;;;13.80;94.50;;;;;;7381099;19;20060;-72
2023/04/22 06:19:44;;;;;;;55.08;32.13;;;13.80;94.60;;;;;;7381936;19;20006;-73
2023/04/22 06:22:15;;;;;;;59.25;32.35;;;13.80;94.50;;;;;;7380367;19;20321;-73
2023/04/22 06:24:43;;;;;;;55.80;33.07;;;13.80;94.50;;;;;;7380393;19;20027;-72
2023/04/22 06:27:12;;;;;;;58.05;32.85;;;13.80;94.70;;;;;;7381287;19;20054;-73
2023/04/22 06:29:43;;;;;;;59.53;32.65;;;13.80;94.70;;;;;;7402055;19;20070;-72
2023/04/22 06:32:12;;;;;;;60.88;34.08;;;13.80;94.80;;;;;;7380595;19;20305;-72
2023/04/22 06:34:41;;;;;;;56.95;31.90;;;13.90;94.80;;;;;;7380309;19;20003;-73
2023/04/22 06:37:10;;;;;;;58.22;33.05;;;13.90;94.80;;;;;;7380528;19;19999;-73
2023/04/22 06:39:39;;;;;;;56.38;31.65;;;14.00;94.70;;;;;;7380565;19;20091;-72
2023/04/22 06:42:08;;;;;;;58.47;32.88;;;14.00;94.90;;;;;;7378002;19;20015;-74
2023/04/22 06:44:36;;;;;;;66.13;32.75;;;13.90;94.50;;;;;;7401565;19;20335;-73
2023/04/22 06:47:08;;;;;;;57.80;31.45;;;14.00;94.70;;;;;;7379712;19;20002;-72
2023/04/22 06:49:38;;;;;;;55.72;31.55;;;13.90;94.60;;;;;;7380649;19;20015;-73
2023/04/22 06:52:07;;;;;;;62.53;31.98;;;13.90;94.70;;;;;;7380351;19;20267;-73
2023/04/22 06:54:35;;;;;;;59.38;33.30;;;13.90;94.70;;;;;;7382136;19;20062;-73
2023/04/22 06:57:04;;;;;;;58.53;31.17;;;13.90;95.10;;;;;;7402105;19;20027;-73
2023/04/22 06:59:33;;;;;;;59.25;32.90;;;13.90;94.80;;;;;;7379288;19;20013;-73
2023/04/22 07:02:02;;;;;;;59.25;31.90;;;13.90;95.00;;;;;;7378009;19;20058;-73
2023/04/22 07:04:33;;;;;;;54.47;30.52;;;14.00;95.50;;;;;;7380199;19;20306;-73
2023/04/22 07:07:02;;;;;;;53.67;30.15;;;14.00;95.60;;;;;;7378694;19;20071;-73
2023/04/22 07:09:31;;;;;;;57.80;32.40;;;14.00;95.10;;;;;;7379656;19;20318;-73
2023/04/22 07:12:00;;;;;;;53.95;30.35;;;14.00;95.00;;;;;;7401972;19;20032;-74
2023/04/22 07:14:28;;;;;;;53.13;31.45;;;14.10;95.00;;;;;;7378934;19;20003;-72
2023/04/22 07:16:57;;;;;;;59.03;30.75;;;14.10;95.10;;;;;;7378942;19;20013;-72
2023/04/22 07:19:26;;;;;;;51.95;31.55;;;14.10;95.10;;;;;;7379862;19;20267;-74
2023/04/22 07:21:58;;;;;;;54.40;31.38;;;14.10;95.10;;;;;;7377952;19;20014;-73
2023/04/22 07:24:26;;;;;;;63.20;33.10;;;14.10;95.00;;;;;;7379534;19;20253;-73
2023/04/22 07:26:55;;;;;;;54.60;31.33;;;14.20;95.10;;;;;;7401502;19;20019;-73
2023/04/22 07:29:24;;;;;;;62.25;32.10;;;14.20;95.20;;;;;;7378840;19;20020;-73
2023/04/22 07:31:52;;;;;;;59.00;30.92;;;14.30;95.30;;;;;;7378669;19;20713;-72
2023/04/22 07:34:21;;;;;;;56.35;30.50;;;14.30;95.20;;;;;;7378905;19;20006;-72
2023/04/22 07:36:52;;;;;;;51.63;29.25;;;14.30;95.10;;;;;;7378231;19;20010;-73
2023/04/22 07:39:24;;;;;;;57.47;30.10;;;14.30;95.20;;;;;;7378196;19;20381;-73
2023/04/22 07:41:55;;;;;;;58.38;30.95;;;14.30;95.30;;;;;;7399885;19;20019;-73
2023/04/22 07:44:23;;;;;;;54.30;29.17;;;14.30;95.30;;;;;;7379061;19;20007;-74
2023/04/22 07:46:52;;;;;;;52.63;31.00;;;14.30;95.70;;;;;;7378004;19;20024;-76
2023/04/22 07:49:21;;;;;;;50.22;29.35;;;14.30;95.40;;;;;;7378575;19;20003;-72
2023/04/22 07:51:50;;;;;;;54.45;31.15;;;14.30;95.50;;;;;;7378741;19;19999;-72
2023/04/22 07:54:18;;;;;;;56.97;31.60;;;14.40;95.60;;;;;;7381474;19;20024;-72
2023/04/22 07:56:50;;;;;;;56.70;30.48;;;14.40;95.60;;;;;;7405014;19;20024;-73
2023/04/22 07:59:18;;;;;;;56.38;30.60;;;14.40;95.60;;;;;;7385350;19;20007;-73
2023/04/22 08:01:47;;;;;;;55.55;31.25;;;14.50;96.00;;;;;;7383847;19;20078;-73
2023/04/22 08:04:16;;;;;;;57.38;29.08;;;14.50;95.50;;;;;;7385897;19;20007;-73
2023/04/22 08:06:45;;;;;;;51.13;28.55;;;14.50;95.90;;;;;;7385095;19;20279;-74
2023/04/22 08:09:14;;;;;;;55.10;31.17;;;14.50;95.70;;;;;;7385490;19;20023;-73
2023/04/22 08:11:43;;;;;;;55.28;32.03;;;14.50;95.80;;;;;;7406847;19;20007;-73
2023/04/22 08:14:14;;;;;;;55.42;31.65;;;14.50;95.90;;;;;;7384676;19;20007;-73
2023/04/22 08:16:43;;;;;;;50.60;31.40;;;14.50;95.90;;;;;;7384577;19;20227;-72
2023/04/22 08:19:12;;;;;;;56.35;30.77;;;14.60;96.00;;;;;;7384955;19;20272;-73
2023/04/22 08:21:41;;;;;;;58.72;32.38;;;14.60;96.00;;;;;;7383173;19;20016;-73
2023/04/22 08:24:10;;;;;;;57.67;31.98;;;14.60;96.20;;;;;;7382238;19;20010;-72
2023/04/22 08:26:39;;;;;;;52.33;30.90;;;14.60;96.20;;;;;;7406705;19;20424;-72
2023/04/22 08:29:08;;;;;;;48.30;29.27;;;14.60;96.30;;;;;;7385124;19;20014;-73
2023/04/22 08:31:40;;;;;;;54.75;30.63;;;14.60;96.30;;;;;;7384735;19;20007;-73
2023/04/22 08:34:08;;;;;;;59.65;31.45;;;14.60;96.30;;;;;;7383527;19;20366;-73
2023/04/22 08:36:37;;;;;;;50.55;29.08;;;14.60;96.30;;;;;;7383706;19;20362;-73
2023/04/22 08:39:06;;;;;;;48.63;28.42;;;14.70;96.50;;;;;;7404394;19;20027;-72
2023/04/22 08:41:37;;;;;;;46.30;27.77;;;14.70;96.60;;;;;;7383188;19;20019;-72
2023/04/22 08:44:07;;;;;;;49.42;27.85;;;14.70;96.50;;;;;;7383699;19;20010;-73
2023/04/22 08:46:36;;;;;;;50.35;28.05;;;14.70;96.40;;;;;;7385898;19;20009;-72
2023/04/22 08:49:07;;;;;;;51.72;29.42;;;14.70;96.50;;;;;;7382562;19;20002;-73
2023/04/22 08:51:37;;;;;;;47.85;27.90;;;14.70;96.60;;;;;;7383791;19;20014;-72
2023/04/22 08:54:05;;;;;;;49.33;26.95;;;14.70;96.80;;;;;;7405482;19;20003;-72
2023/04/22 08:56:35;;;;;;;45.05;27.52;;;14.70;96.80;;;;;;7383489;19;20062;-72
2023/04/22 08:59:05;;;;;;;54.95;28.98;;;14.80;97.00;;;;;;7382419;19;20006;-72
2023/04/22 09:01:35;;;;;;;46.72;28.38;;;14.80;97.10;;;;;;7382002;19;20467;-72
2023/04/22 09:04:07;;;;;;;46.20;26.52;;;14.80;97.30;;;;;;7383709;19;20010;-73
2023/04/22 09:06:36;;;;;;;30.80;19.45;;;14.90;97.50;;;;;;7381071;19;20006;-72
2023/04/22 09:09:07;;;;;;;29.67;16.95;;;14.90;97.70;;;;;;7405258;19;20358;-73
2023/04/22 09:11:36;;;;;;;26.58;16.60;;;14.80;98.00;;;;;;7384042;19;20374;-73
2023/04/22 09:14:05;;;;;;;27.98;16.60;;;14.80;98.60;;;;;;7383738;19;20003;-73
2023/04/22 09:16:34;;;;;;;25.80;15.95;;;14.80;98.60;;;;;;7383303;19;20003;-73
2023/04/22 09:19:03;;;;;;;26.98;16.05;;;14.90;98.80;;;;;;7384321;19;20074;-74
2023/04/22 09:21:35;;;;;;;26.17;14.35;;;14.80;99.10;;;;;;7381919;19;20271;-73
2023/04/22 09:24:03;;;;;;;26.70;15.60;;;14.90;99.10;;;;;;7402950;19;20011;-73
2023/04/22 09:26:33;;;;;;;24.88;15.10;;;14.80;99.20;;;;;;7382562;19;20006;-73
2023/04/22 09:29:03;;;;;;;23.25;15.57;;;14.90;99.30;;;;;;7381742;19;20007;-72
2023/04/22 09:31:32;;;;;;;26.00;14.40;;;15.00;99.30;;;;;;7382859;19;20062;-72
2023/04/22 09:34:02;;;;;;;19.80;12.35;;;14.80;99.50;;;;;;7382705;19;20016;-72
2023/04/22 09:36:36;;;;;;;21.50;12.45;;;15.00;99.40;;;;;;7383137;19;20018;-72
2023/04/22 09:39:06;;;;;;;19.52;12.23;;;14.70;99.30;;;;;;7402771;19;20003;-72
2023/04/22 09:41:38;;;;;;;18.07;12.57;;;15.00;99.30;;;;;;7382083;19;20003;-72
2023/04/22 09:44:09;;;;;;;;;;;15.00;99.30;;;;;;7382871;19;20002;-72
2023/04/22 09:46:38;;;;;;;16.75;11.07;;;15.00;99.30;;;;;;7382489;19;19911;-72
2023/04/22 09:49:07;;;;;;;16.40;10.27;;;15.10;98.90;;;;;;7382480;19;20078;-73
2023/04/22 09:51:42;;;;;;;14.68;10.32;;;15.10;98.90;;;;;;7382382;19;20007;-73
2023/04/22 09:54:12;;;;;;;15.40;9.77;;;15.10;98.80;;;;;;7380428;19;20010;-73
2023/04/22 09:56:47;;;;;;;15.48;9.55;;;14.90;98.80;;;;;;7402068;19;20410;-72
2023/04/22 09:59:16;;;;;;;17.30;9.57;;;15.00;98.70;;;;;;7381321;19;20012;-72
2023/04/22 10:01:45;;;;;;;16.92;10.52;;;15.10;98.60;;;;;;7380621;19;20023;-72
2023/04/22 10:04:14;;;;;;;16.67;10.88;;;15.10;98.40;;;;;;7381843;19;20047;-73
2023/04/22 10:06:46;;;;;;;16.63;11.30;;;14.90;98.40;;;;;;7382455;19;20151;-72
2023/04/22 10:09:14;;;;;;;;;;;15.10;98.80;;;;;;7381283;19;20007;-71
2023/04/22 10:11:43;;;;;;;18.83;11.10;;;15.00;98.20;;;;;;7403990;19;19938;-72
2023/04/22 10:14:13;;;;;;;23.73;12.05;;;14.90;98.10;;;;;;7380980;19;20002;-72
2023/04/22 10:16:43;;;;;;;23.83;12.68;;;14.80;98.20;;;;;;7379819;19;20009;-72
2023/04/22 10:19:24;;;;;;;20.60;12.57;;;14.70;98.40;;;;;;7382216;19;19999;-72
2023/04/22 10:21:58;;;;;;;22.17;13.15;;;14.70;98.30;;;;;;7380188;19;19999;-72
2023/04/22 10:24:29;;;;;;;21.42;13.50;;;14.70;98.20;;;;;;7381823;19;20003;-72
2023/04/22 10:27:01;;;;;;;21.20;13.40;;;14.70;98.70;;;;;;7401153;19;20027;-72
2023/04/22 10:29:38;;;;;;;19.08;12.35;;;14.60;98.30;;;;;;7381595;19;20055;-72
2023/04/22 10:32:08;;;;;;;18.95;12.45;;;14.50;98.10;;;;;;7381088;19;20006;-72
2023/04/22 10:34:39;;;;;;;19.50;12.25;;;14.60;98.30;;;;;;7381921;19;20002;-71
2023/04/22 10:37:12;;;;;;;23.80;11.82;;;14.70;98.10;;;;;;7380964;19;20013;-73
2023/04/22 10:39:42;;;;;;;21.02;11.93;;;14.70;98.00;;;;;;7382714;19;20378;-73
2023/04/22 10:42:14;;;;;;;19.95;13.00;;;14.80;97.80;;;;;;7379936;19;20014;-72
2023/04/22 10:44:51;;;;;;;19.65;11.93;;;14.80;97.80;;;;;;7402648;19;20006;-72
2023/04/22 10:47:27;;;;;;;20.23;12.43;;;14.70;97.30;;;;;;7381064;19;20007;-71
2023/04/22 10:50:20;;;;;;;19.85;12.55;;;14.60;97.50;;;;;;7379883;19;20019;-71
2023/04/22 10:52:54;;;;;;;19.98;12.20;;;14.70;97.70;;;;;;7380645;19;20027;-71
2023/04/22 10:55:23;;;;;;;21.83;13.40;;;14.80;97.30;;;;;;7380582;19;20015;-72
2023/04/22 10:57:53;;;;;;;21.23;12.70;;;14.40;97.30;;;;;;7380854;19;20086;-72
2023/04/22 11:00:25;;;;;;;22.85;13.13;;;14.60;97.60;;;;;;7378790;19;20147;-71
2023/04/22 11:02:55;;;;;;;21.52;13.68;;;14.80;97.20;;;;;;7400821;19;20365;-72
2023/04/22 11:05:27;;;;;;;23.23;13.87;;;14.90;97.00;;;;;;7380340;19;20006;-73
2023/04/22 11:08:04;;;;;;;20.98;13.55;;;14.80;96.90;;;;;;7379333;19;20009;-72
2023/04/22 11:10:44;;;;;;;20.63;13.52;;;14.90;96.60;;;;;;7380981;19;20035;-71
2023/04/22 11:13:15;;;;;;;20.42;13.27;;;14.80;96.30;;;;;;7380499;19;20003;-71
2023/04/22 11:15:45;;;;;;;27.15;14.43;;;15.00;96.50;;;;;;7380374;19;20012;-71
2023/04/22 11:18:20;;;;;;;21.52;13.85;;;14.90;96.20;;;;;;7378046;19;20016;-71
2023/04/22 11:20:51;;;;;;;26.45;14.15;;;14.90;96.40;;;;;;7400211;19;20015;-71
2023/04/22 11:23:25;;;;;;;24.15;15.35;;;15.00;96.50;;;;;;7378281;19;20066;-72
2023/04/22 11:25:57;;;;;;;24.80;14.85;;;15.10;96.00;;;;;;7379422;19;20020;-72
2023/04/22 11:28:26;;;;;;;28.27;15.07;;;15.10;95.80;;;;;;7382061;19;20407;-72
2023/04/22 11:31:02;;;;;;;29.52;16.00;;;15.00;96.10;;;;;;7385554;19;20003;-72
2023/04/22 11:33:31;;;;;;;26.73;15.88;;;14.70;96.20;;;;;;7386729;19;20406;-72
2023/04/22 11:36:00;;;;;;;28.27;15.82;;;14.80;96.70;;;;;;7408685;19;20030;-72
2023/04/22 11:38:31;;;;;;;30.30;15.93;;;14.80;96.30;;;;;;7386202;19;20003;-72
2023/04/22 11:41:00;;;;;;;27.17;16.38;;;14.90;96.10;;;;;;7386336;19;20259;-71
2023/04/22 11:43:29;;;;;;;28.70;16.02;;;15.00;96.20;;;;;;7384594;19;20485;-71
2023/04/22 11:45:59;;;;;;;28.27;17.63;;;15.10;96.00;;;;;;7388081;19;20062;-71
2023/04/22 11:48:27;;;;;;;33.13;18.10;;;15.30;96.00;;;;;;7387193;19;20010;-71
2023/04/22 11:51:11;;;;;;;27.90;16.55;;;15.30;96.00;;;;;;7409245;19;20461;-72
2023/04/22 11:53:53;;;;;;;24.85;15.98;;;15.30;95.80;;;;;;7386806;19;20027;-72
2023/04/22 11:56:23;;;;;;;25.23;15.43;;;15.30;95.50;;;;;;7385920;19;20425;-72
2023/04/22 11:58:51;;;;;;;26.20;16.15;;;15.30;95.50;;;;;;7385044;19;20002;-72
2023/04/22 12:01:20;;;;;;;24.63;16.10;;;15.30;95.70;;;;;;7386384;19;20027;-72
2023/04/22 12:03:50;;;;;;;24.48;16.10;;;15.10;96.00;;;;;;7385097;19;20054;-72
2023/04/22 12:06:18;;;;;;;26.15;16.40;;;15.20;96.00;;;;;;7383486;19;20027;-71
2023/04/22 12:08:53;;;;;;;29.10;17.08;;;15.40;96.00;;;;;;7407148;19;20066;-72
2023/04/22 12:11:23;;;;;;;27.17;16.45;;;15.30;95.70;;;;;;7386401;19;20235;-71
2023/04/22 12:13:53;;;;;;;30.88;17.42;;;15.40;95.50;;;;;;7385109;19;20394;-72
2023/04/22 12:16:22;;;;;;;27.40;17.30;;;15.40;95.40;;;;;;7385444;19;20020;-71
2023/04/22 12:18:52;;;;;;;27.77;16.20;;;15.40;95.70;;;;;;7385211;19;20167;-71
2023/04/22 12:21:23;;;;;;;28.33;16.30;;;15.40;95.90;;;;;;7382958;19;20007;-71
2023/04/22 12:23:56;;;;;;;23.02;15.50;;;15.30;95.90;;;;;;7404346;19;20283;-72
2023/04/22 12:26:26;;;;;;;24.63;15.48;;;15.50;96.10;;;;;;7384577;19;20416;-72
2023/04/22 12:28:56;;;;;;;28.40;16.27;;;15.60;95.80;;;;;;7384679;19;20011;-71
2023/04/22 12:31:25;;;;;;;26.10;16.30;;;15.90;95.80;;;;;;7387126;19;19999;-71
2023/04/22 12:33:55;;;;;;;26.05;15.95;;;15.90;95.30;;;;;;7384863;19;20015;-73
2023/04/22 12:36:24;;;;;;;21.95;14.60;;;16.20;95.60;;;;;;7382249;19;20006;-71
2023/04/22 12:38:55;;;;;;;19.17;13.32;;;16.40;94.50;;;;;;7404235;19;20002;-72
2023/04/22 12:41:24;;;;;;;19.65;12.43;;;16.60;94.10;;;;;;7384878;19;20014;-72
2023/04/22 12:43:54;;;;;;;18.45;11.48;;;16.80;93.90;;;;;;7384313;19;20041;-72